Altamont, UT

3:29 AM MDT on July 28, 2014 (GMT -0600)
RAWS BLACKTAIL UT US (MBLAU1) Elev 7311 ft | 40.28 °N, 110.56 °W | Change Station

Current weather conditions updated 58 minutes ago

Clear
Clear
70 °F
Feels Like 70 °F
N
14
Wind Variable Wind from WSW
Gusts 20.0 mph

Today is forecast to be Cooler than yesterday. Showers and thunderstorms late.

Today
High -- | Low -- °F
--% Chance of Precip.
Yesterday
High -- | Low -- °F
Precip. -- in
6:15 AM 8:40 PM
New Moon, 2% visible
Pressure 30.03 in
Visibility 10.0 miles
Clouds Clear
Dew Point 40 °F
Humidity 33%
Rainfall 0.00 in
Snow Depth 0 in , 0 in
UV 0 out of 12
Pollen 6.70 out of 12
Air Quality Not available.
Flu Activity Not available.
METAR KVEL 280853Z AUTO 30003KT 10SM CLR 20/06 A3025 RMK AO2 SLP169 T02000061 53006

More Conditions Fewer Conditions

Pressure 30.03 in
Visibility 10.0 miles
Clouds Clear
Dew Point 40 °F
Humidity 33%
Rainfall 0.00 in
Snow Depth 0 in , 0 in
UV 0 out of 12
Pollen 6.70 out of 12
Air Quality Not available.
Flu Activity Not available.
METAR KVEL 280853Z AUTO 30003KT 10SM CLR 20/06 A3025 RMK AO2 SLP169 T02000061 53006

More Conditions Fewer Conditions

10-Day Weather Forecast

Almanac

Astronomy

Jul. 28, 2014 Rise Set
Actual Time 6:15 AM MDT 8:40 PM MDT
Civil Twilight 5:44 AM MDT 9:11 PM MDT
Nautical Twilight 5:06 AM MDT 9:49 PM MDT
Astronomical Twilight 4:23 AM MDT 10:31 PM MDT
Moon 8:00 AM MDT 9:23 PM MDT
Length of Visible Light 15h 26m
Length of Day
14h 24m
Tomorrow will be 1m 54s shorter.
New Moon, 2% of the Moon is Illuminated
Today
New Moon
Aug 3
First Quarter
Aug 10
Full
Aug 17
Last Quarter
Aug 25
New

Today's Extremes

State Highs State Lows

Community

WunderPhotos

Upload Photos

1,738,296 photos uploaded!

Nearby

Snow Depth

Station Depth Elevation
Brown Duck 0 in 10600 ft
Lakefork #1 0 in 10100 ft
Rock Creek 0 in 7900 ft
Five Points Lake 0 in 10920 ft
Trial Lake 1 in 9960 ft

Earthquake Activity

City Distance Mag. Time & Date
No recent earthquake activity has been reported nearby.
Minimum magnitude displayed is 2.5.

Coastal Water Temperatures

Place Temperature
No Stations Reporting

Nearby Weather Stations

Station Location Temp. Dew Point Humidity Wind Precip. Elev Updated Type
MesoWest MOUNTAIN HOME , Bluebell, UT 64 °F 36 °F 36% WNW  at  5 mph 0.00 in / hr 6950 ft 2:00 AM MDT MADIS
RAWS BLACKTAIL UT, Tabiona, UT 70 °F 40 °F 33% WSW  at  14 mph 0.00 in / hr 7311 ft 2:31 AM MDT MADIS
HADS MOON LAKE NEAR ALTONAH 20NW UT, Altonah, UT 59 °F 38 °F 46% West  at  4 mph 0.00 in / hr 8149 ft 3:00 AM MDT MADIS
HADS HANNA NEAR DUSCHENE 24NW UT, Tabiona, UT 61 °F 41 °F 48% WSW  at  4 mph 0.00 in / hr 6745 ft 2:15 AM MDT MADIS
MesoWest Fruitland , Fruitland, UT 67 °F 39 °F 36% SW  at  5 mph 0.00 in / hr 6633 ft 1:45 AM MDT MADIS
MesoWest LITTLE RED FOX , Talmage, UT 61 °F 47 °F 60% NW  at  1 mph 0.00 in / hr 5396 ft 2:00 AM MDT MADIS

Show More Stations Show Fewer Stations